Mayesville, SC (29104)

2:52 AM EDT on August 05, 2015 (GMT -0400)
USC Sumter | | Change Station
CLOSE
Current Station
Personal Weather Station
Location: Sumter, SC
Elevation: 165 ft
Nearby Weather Stations

Elev 165 ft 33.93 °N, 80.37 °W | Updated 11 minutes ago

Clear
Clear
80.5 °F
Feels Like 85 °F
N
4.0
Wind Variable Wind from North
Gusts 14.0 mph

Today
High -- | Low -- °F
--% Chance of Precip.
Yesterday
High -- | Low -- °F
Precip. -- in
6:35 AM 8:18 PM
Waning Gibbous, 70% visible
Pressure 29.97 in
Visibility 10.0 miles
Clouds Clear
Heat Index 85 °F
Dew Point 74 °F
Humidity 80%
Rainfall -999.00 in
Snow Depth Not available.
UV 0.0 out of 12
Pollen 4.00 out of 12
Air Quality Not available.
Flu Activity Not available.
METAR KSSC 050558Z AUTO 21007KT 10SM CLR 28/23 A2997 RMK AO2 SLP147 T02780233 10342 20278 50004 $

More Conditions Fewer Conditions

Pressure 29.97 in
Visibility 10.0 miles
Clouds Clear
Heat Index 85 °F
Dew Point 74 °F
Humidity 80%
Rainfall -999.00 in
Snow Depth Not available.
UV 0.0 out of 12
Pollen 4.00 out of 12
Air Quality Not available.
Flu Activity Not available.
METAR KSSC 050558Z AUTO 21007KT 10SM CLR 28/23 A2997 RMK AO2 SLP147 T02780233 10342 20278 50004 $

More Conditions Fewer Conditions

10-Day Weather Forecast

×

Almanac

Astronomy

Aug. 05, 2015 Rise Set
Actual Time
Civil Twilight
Nautical Twilight
Astronomical Twilight
Moon
Length of Visible Light
Length of Day
Tomorrow will be .
, % of the Moon is Illuminated

Today's Extremes

State Highs State Lows

Community

WunderPhotos

Upload Photos

1,844,105 photos uploaded!

WunderBlogs® & News

Nearby

Air Quality

  Air Quality AQ Index Pollutant
Not available.

Snow Depth

Station Depth Elevation

Earthquake Activity

City Distance Mag. Time & Date
Minimum magnitude displayed is 2.5.

Coastal Water Temperatures

Place Temperature

Stations

Nearby Weather Stations

Station Location Temp. Windchill Dew Point Humidity Wind Precip. Elev Updated Type